Time;durP1;ratioP1;P1;durP2;ratioP2;P2;SDS_P1;SDS_P2;PMS_P1;PMS_P2;Temp;Humidity;BMP_temperature;BMP_pressure;BME280_temperature;BME280_humidity;BME280_pressure;Samples;Min_cycle;Max_cycle;Signal;HPM_P1;HPM_P2
2023/01/12 00:01:31;;;;;;;3.83;1.67;;;;;;;;;;5071579;28;20032;-61
2023/01/12 00:03:56;;;;;;;9.77;2.10;;;;;;;;;;5072628;28;20086;-61
2023/01/12 00:06:23;;;;;;;9.00;1.88;;;;;;;;;;5074877;28;20451;-61
2023/01/12 00:08:50;;;;;;;9.25;2.00;;;;;;;;;;5073343;28;20534;-61
2023/01/12 00:11:17;;;;;;;7.10;1.98;;;;;;;;;;5070932;28;20032;-61
2023/01/12 00:13:43;;;;;;;10.30;1.85;;;;;;;;;;5070800;28;20052;-61
2023/01/12 00:16:39;;;;;;;9.95;2.10;;;;;;;;;;5069353;28;20032;-62
2023/01/12 00:19:16;;;;;;;19.60;2.40;;;;;;;;;;5062199;28;20039;-60
2023/01/12 00:21:56;;;;;;;9.15;2.28;;;;;;;;;;5072117;28;20036;-61
2023/01/12 00:24:36;;;;;;;8.43;2.55;;;;;;;;;;5073195;28;20024;-61
2023/01/12 00:27:07;;;;;;;12.98;2.30;;;;;;;;;;5078570;28;20074;-62
2023/01/12 00:29:32;;;;;;;;;;;;;;;;;;5065826;28;20041;-62
2023/01/12 00:31:59;;;;;;;9.75;2.80;;;;;;;;;;5069169;28;19912;-61
2023/01/12 00:34:25;;;;;;;12.82;2.67;;;;;;;;;;5080390;28;20033;-61
2023/01/12 00:36:51;;;;;;;9.98;2.63;;;;;;;;;;5071791;28;20032;-62
2023/01/12 00:39:17;;;;;;;11.68;2.85;;;;;;;;;;5070215;28;20024;-61
2023/01/12 00:47:13;;;;;;;9.40;2.35;;;;;;;;;;5070779;28;20094;-62
2023/01/12 00:49:40;;;;;;;16.38;2.47;;;;;;;;;;5072655;28;20039;-62
2023/01/12 00:52:07;;;;;;;9.70;2.38;;;;;;;;;;5071456;28;20119;-62
2023/01/12 00:54:33;;;;;;;6.30;2.25;;;;;;;;;;5063754;28;20036;-62
2023/01/12 00:56:59;;;;;;;9.02;2.05;;;;;;;;;;5067373;28;20059;-62
2023/01/12 00:59:24;;;;;;;9.27;2.22;;;;;;;;;;5069730;28;20481;-60
2023/01/12 01:01:50;;;;;;;8.80;2.30;;;;;;;;;;5072044;28;20036;-60
2023/01/12 01:04:15;;;;;;;5.18;1.92;;;;;;;;;;5070042;28;20033;-62
2023/01/12 01:06:41;;;;;;;7.45;1.88;;;;;;;;;;5069605;28;20033;-61
2023/01/12 01:09:07;;;;;;;11.57;2.70;;;;;;;;;;5069682;28;20040;-61
2023/01/12 01:11:33;;;;;;;9.00;2.30;;;;;;;;;;5068405;28;20060;-61
2023/01/12 01:13:59;;;;;;;6.90;2.00;;;;;;;;;;5069562;28;20021;-62
2023/01/12 01:16:24;;;;;;;7.97;1.98;;;;;;;;;;5073135;28;20067;-61
2023/01/12 01:18:50;;;;;;;7.35;2.15;;;;;;;;;;5071917;28;20056;-61
2023/01/12 01:21:17;;;;;;;8.27;2.70;;;;;;;;;;5068594;28;20662;-61
2023/01/12 01:23:43;;;;;;;7.25;2.17;;;;;;;;;;5068844;28;20028;-61
2023/01/12 01:26:14;;;;;;;6.22;2.00;;;;;;;;;;5070800;28;20064;-61
2023/01/12 01:28:40;;;;;;;7.85;2.72;;;;;;;;;;5067120;28;20036;-62
2023/01/12 01:31:08;;;;;;;13.70;3.25;;;;;;;;;;5071326;28;20500;-61
2023/01/12 01:33:34;;;;;;;11.00;3.15;;;;;;;;;;5069804;28;20040;-61
2023/01/12 01:36:00;;;;;;;9.05;2.47;;;;;;;;;;5069651;28;20042;-62
2023/01/12 01:38:26;;;;;;;6.45;2.53;;;;;;;;;;5058440;28;20032;-61
2023/01/12 01:40:51;;;;;;;7.78;2.88;;;;;;;;;;5072053;28;20465;-61
2023/01/12 01:43:19;;;;;;;10.30;2.50;;;;;;;;;;5067100;28;20039;-61
2023/01/12 01:45:48;;;;;;;6.38;2.63;;;;;;;;;;5070571;28;20146;-60
2023/01/12 01:48:16;;;;;;;10.10;3.40;;;;;;;;;;5067139;28;20123;-61
2023/01/12 01:50:53;;;;;;;7.57;2.28;;;;;;;;;;5069786;28;20063;-61
2023/01/12 01:53:22;;;;;;;7.13;2.35;;;;;;;;;;5085343;28;20031;-61
2023/01/12 01:55:51;;;;;;;9.73;3.40;;;;;;;;;;5081734;28;20393;-61
2023/01/12 01:58:23;;;;;;;5.10;2.42;;;;;;;;;;5067217;28;20039;-61
2023/01/12 02:00:48;;;;;;;11.43;3.03;;;;;;;;;;5070871;28;20075;-61
2023/01/12 02:03:16;;;;;;;9.88;3.15;;;;;;;;;;5071352;28;20469;-61
2023/01/12 02:05:44;;;;;;;10.63;2.88;;;;;;;;;;5082818;28;20466;-61
2023/01/12 02:08:42;;;;;;;9.40;2.55;;;;;;;;;;5070427;28;20377;-61
2023/01/12 02:16:19;;;;;;;12.68;2.45;;;;;;;;;;5070432;28;20039;-62
2023/01/12 02:16:44;;;;;;;13.23;2.33;;;;;;;;;;5064164;28;20040;-62
2023/01/12 02:19:31;;;;;;;7.95;2.30;;;;;;;;;;5077824;28;20028;-63
2023/01/12 02:22:19;;;;;;;9.38;2.25;;;;;;;;;;5058161;28;20032;-63
2023/01/12 02:25:00;;;;;;;6.93;1.80;;;;;;;;;;5069730;28;20044;-61
2023/01/12 02:27:50;;;;;;;6.90;1.95;;;;;;;;;;5071110;28;20095;-61
2023/01/12 02:30:58;;;;;;;9.73;2.63;;;;;;;;;;5052086;28;20119;-61
2023/01/12 02:34:05;;;;;;;8.82;1.95;;;;;;;;;;5059737;28;20050;-61
2023/01/12 02:36:48;;;;;;;7.68;2.25;;;;;;;;;;5019612;28;20045;-61
2023/01/12 02:39:23;;;;;;;17.15;2.97;;;;;;;;;;5073336;28;20048;-62
2023/01/12 02:44:54;;;;;;;9.88;2.13;;;;;;;;;;5081633;28;20459;-60
2023/01/12 02:47:48;;;;;;;10.63;2.88;;;;;;;;;;5067744;28;20346;-60
2023/01/12 02:50:20;;;;;;;14.23;3.30;;;;;;;;;;5068781;28;20032;-61
2023/01/12 02:52:53;;;;;;;17.90;3.05;;;;;;;;;;5070358;28;20032;-60
2023/01/12 02:55:18;;;;;;;10.27;2.10;;;;;;;;;;5067061;28;20024;-61
2023/01/12 02:57:45;;;;;;;7.38;2.33;;;;;;;;;;5079040;28;20035;-60
2023/01/12 03:00:15;;;;;;;17.92;3.03;;;;;;;;;;5055716;28;20049;-61
2023/01/12 03:02:41;;;;;;;14.75;2.97;;;;;;;;;;5050433;28;20044;-61
2023/01/12 03:05:07;;;;;;;6.13;2.08;;;;;;;;;;5048651;28;20036;-61
2023/01/12 03:07:59;;;;;;;18.98;2.70;;;;;;;;;;5048533;28;20036;-61
2023/01/12 03:10:41;;;;;;;5.72;1.83;;;;;;;;;;5052366;28;20044;-61
2023/01/12 03:13:12;;;;;;;14.40;3.00;;;;;;;;;;5034626;28;20079;-61
2023/01/12 03:15:43;;;;;;;9.75;2.50;;;;;;;;;;5050367;28;20024;-61
2023/01/12 03:18:31;;;;;;;8.75;3.13;;;;;;;;;;5054402;28;20531;-61
2023/01/12 03:21:06;;;;;;;12.60;2.42;;;;;;;;;;5035264;28;20045;-60
2023/01/12 03:23:40;;;;;;;4.93;1.83;;;;;;;;;;5054139;28;20041;-61
2023/01/12 03:26:09;;;;;;;13.27;2.55;;;;;;;;;;5053509;28;20037;-62
2023/01/12 03:28:37;;;;;;;10.75;2.38;;;;;;;;;;5054307;28;20049;-61
2023/01/12 03:31:08;;;;;;;11.45;2.70;;;;;;;;;;5055584;28;20029;-61
2023/01/12 03:33:34;;;;;;;7.45;1.90;;;;;;;;;;5036988;28;20081;-61
2023/01/12 03:36:12;;;;;;;15.52;2.20;;;;;;;;;;5054885;28;20025;-60
2023/01/12 03:38:48;;;;;;;7.70;1.90;;;;;;;;;;5035942;28;20037;-60
2023/01/12 03:41:27;;;;;;;7.20;2.10;;;;;;;;;;5054069;28;20029;-61
2023/01/12 03:44:00;;;;;;;10.10;2.08;;;;;;;;;;5055375;28;20443;-61
2023/01/12 03:46:37;;;;;;;13.70;2.45;;;;;;;;;;5032884;28;20797;-61
2023/01/12 03:49:24;;;;;;;17.70;2.70;;;;;;;;;;5045197;28;20036;-63
2023/01/12 03:51:51;;;;;;;8.00;2.28;;;;;;;;;;5053510;28;20032;-60
2023/01/12 03:54:18;;;;;;;7.05;1.90;;;;;;;;;;5053226;28;20127;-59
2023/01/12 03:56:45;;;;;;;10.30;2.38;;;;;;;;;;5055325;28;20465;-59
2023/01/12 03:59:12;;;;;;;12.98;2.60;;;;;;;;;;5073367;28;20435;-59
2023/01/12 04:01:37;;;;;;;11.18;2.47;;;;;;;;;;5050449;28;20135;-58
2023/01/12 04:04:03;;;;;;;11.98;2.65;;;;;;;;;;5054168;28;20029;-61
2023/01/12 04:06:28;;;;;;;11.68;2.25;;;;;;;;;;5050090;28;20060;-61
2023/01/12 04:08:54;;;;;;;11.75;2.33;;;;;;;;;;5058552;28;20036;-59
2023/01/12 04:14:03;;;;;;;13.18;2.30;;;;;;;;;;5052365;28;20040;-61
2023/01/12 04:16:29;;;;;;;5.63;2.53;;;;;;;;;;5054034;28;20036;-60
2023/01/12 04:18:54;;;;;;;6.53;1.70;;;;;;;;;;5052887;28;20036;-60
2023/01/12 04:24:04;;;;;;;8.75;2.22;;;;;;;;;;5033623;28;20589;-61
2023/01/12 04:26:29;;;;;;;7.03;1.90;;;;;;;;;;5060097;28;20037;-58
2023/01/12 04:28:55;;;;;;;9.45;1.95;;;;;;;;;;5054091;28;20037;-59
2023/01/12 04:31:20;;;;;;;5.47;1.58;;;;;;;;;;5057169;28;20452;-58
2023/01/12 04:33:45;;;;;;;10.48;2.30;;;;;;;;;;5053167;28;20419;-59
2023/01/12 04:36:11;;;;;;;10.57;1.92;;;;;;;;;;5052818;28;20043;-59
2023/01/12 04:38:39;;;;;;;9.57;1.83;;;;;;;;;;5053797;28;20025;-62
2023/01/12 04:41:07;;;;;;;6.55;1.80;;;;;;;;;;5052995;28;20111;-61
2023/01/12 04:43:32;;;;;;;10.77;2.53;;;;;;;;;;5053982;28;20029;-59
2023/01/12 04:46:03;;;;;;;7.85;2.22;;;;;;;;;;5054296;28;20054;-59
2023/01/12 04:48:28;;;;;;;6.10;2.15;;;;;;;;;;5052839;28;20052;-59
2023/01/12 04:50:54;;;;;;;8.30;1.80;;;;;;;;;;5046950;28;20076;-60
2023/01/12 04:53:20;;;;;;;13.00;1.98;;;;;;;;;;5030119;28;20535;-61
2023/01/12 04:55:46;;;;;;;6.47;2.00;;;;;;;;;;5051145;28;20550;-60
2023/01/12 04:58:11;;;;;;;9.13;1.75;;;;;;;;;;5049924;28;20036;-60
2023/01/12 05:00:37;;;;;;;8.70;2.10;;;;;;;;;;5067351;28;20045;-59
2023/01/12 05:03:02;;;;;;;9.32;1.95;;;;;;;;;;5079703;28;20361;-61
2023/01/12 05:05:32;;;;;;;3.80;1.75;;;;;;;;;;5068769;28;20044;-61
2023/01/12 05:10:47;;;;;;;8.60;2.05;;;;;;;;;;5065886;28;20466;-59
2023/01/12 05:13:13;;;;;;;9.80;2.03;;;;;;;;;;5064998;28;20032;-59
2023/01/12 05:15:38;;;;;;;9.55;2.13;;;;;;;;;;5070483;28;20029;-59
2023/01/12 05:18:03;;;;;;;10.35;1.77;;;;;;;;;;5072229;28;20036;-61
2023/01/12 05:20:29;;;;;;;6.45;1.90;;;;;;;;;;5085914;28;20025;-58
2023/01/12 05:22:55;;;;;;;7.30;1.70;;;;;;;;;;5073125;28;20036;-60
2023/01/12 05:25:20;;;;;;;7.72;1.63;;;;;;;;;;5082340;28;20043;-59
2023/01/12 05:27:46;;;;;;;6.97;1.55;;;;;;;;;;5072499;28;20033;-60
2023/01/12 05:30:11;;;;;;;6.30;2.08;;;;;;;;;;5071870;28;20051;-58
2023/01/12 05:32:37;;;;;;;4.93;1.67;;;;;;;;;;5069321;28;20035;-61
2023/01/12 05:35:07;;;;;;;4.53;1.58;;;;;;;;;;5069417;28;20123;-61
2023/01/12 05:37:33;;;;;;;5.05;1.60;;;;;;;;;;5070578;28;20030;-60
2023/01/12 05:39:59;;;;;;;8.68;1.60;;;;;;;;;;5071363;28;20032;-58
2023/01/12 05:45:09;;;;;;;5.05;1.52;;;;;;;;;;5060518;28;20042;-57
2023/01/12 05:47:34;;;;;;;6.63;1.38;;;;;;;;;;5070300;28;20028;-58
2023/01/12 05:50:00;;;;;;;4.95;1.48;;;;;;;;;;5064251;28;20476;-57
2023/01/12 05:52:25;;;;;;;10.50;1.60;;;;;;;;;;5063898;28;22021;-58
2023/01/12 05:54:51;;;;;;;4.40;1.35;;;;;;;;;;5076935;28;20034;-58
2023/01/12 05:57:16;;;;;;;2.75;1.13;;;;;;;;;;5091067;28;20032;-58
2023/01/12 05:59:41;;;;;;;6.32;1.60;;;;;;;;;;5072320;28;20044;-56
2023/01/12 06:02:10;;;;;;;5.90;1.20;;;;;;;;;;5069470;28;20036;-56
2023/01/12 06:04:36;;;;;;;6.40;1.55;;;;;;;;;;5071071;28;20042;-57
2023/01/12 06:07:02;;;;;;;7.60;1.15;;;;;;;;;;5072529;28;20108;-61
2023/01/12 06:09:27;;;;;;;6.78;1.80;;;;;;;;;;5086156;28;20484;-59
2023/01/12 06:14:36;;;;;;;6.03;1.40;;;;;;;;;;5089455;28;20038;-58
2023/01/12 06:17:01;;;;;;;5.00;1.65;;;;;;;;;;5092309;28;20115;-60
2023/01/12 06:19:27;;;;;;;2.45;1.13;;;;;;;;;;5073175;28;20479;-57
2023/01/12 06:21:54;;;;;;;7.35;1.30;;;;;;;;;;5068419;28;20036;-58
2023/01/12 06:24:20;;;;;;;3.78;1.00;;;;;;;;;;5070888;28;20389;-59
2023/01/12 06:26:45;;;;;;;6.53;2.03;;;;;;;;;;5075417;28;20054;-58
2023/01/12 06:29:12;;;;;;;4.30;1.20;;;;;;;;;;5067189;28;20115;-61
2023/01/12 06:31:38;;;;;;;6.55;1.50;;;;;;;;;;5072431;28;20036;-61
2023/01/12 06:34:06;;;;;;;2.10;1.00;;;;;;;;;;5085762;28;20477;-61
2023/01/12 06:36:32;;;;;;;6.70;1.25;;;;;;;;;;5078151;28;20090;-61
2023/01/12 06:38:57;;;;;;;5.05;1.20;;;;;;;;;;5070465;28;20028;-61
2023/01/12 06:44:07;;;;;;;5.65;1.60;;;;;;;;;;5079022;28;20047;-61
2023/01/12 06:46:32;;;;;;;2.25;1.00;;;;;;;;;;5068532;28;20040;-60
2023/01/12 06:48:58;;;;;;;5.35;1.38;;;;;;;;;;5068117;28;20438;-61
2023/01/12 06:51:23;;;;;;;5.13;1.42;;;;;;;;;;5070564;28;20653;-61
2023/01/12 06:53:49;;;;;;;3.97;1.15;;;;;;;;;;5070499;28;20048;-61
2023/01/12 06:56:14;;;;;;;3.88;1.30;;;;;;;;;;5068957;28;20047;-61
2023/01/12 06:58:43;;;;;;;3.88;1.25;;;;;;;;;;5067729;28;20107;-61
2023/01/12 07:01:08;;;;;;;3.15;0.93;;;;;;;;;;5049442;28;20029;-61
2023/01/12 07:03:34;;;;;;;6.88;1.40;;;;;;;;;;5070926;28;20035;-61
2023/01/12 07:06:00;;;;;;;7.95;1.75;;;;;;;;;;5052258;28;20062;-61
2023/01/12 07:08:26;;;;;;;4.90;1.40;;;;;;;;;;5067321;28;20877;-60
2023/01/12 07:10:51;;;;;;;2.42;1.20;;;;;;;;;;5041798;28;20040;-61
2023/01/12 07:13:16;;;;;;;4.68;1.35;;;;;;;;;;5048393;28;20025;-61
2023/01/12 07:15:42;;;;;;;3.63;1.33;;;;;;;;;;5049990;28;20029;-61
2023/01/12 07:18:07;;;;;;;10.05;1.50;;;;;;;;;;5063554;28;20109;-62
2023/01/12 07:20:33;;;;;;;4.80;2.10;;;;;;;;;;5063937;28;20044;-61
2023/01/12 07:22:58;;;;;;;7.40;1.42;;;;;;;;;;5066198;28;20060;-61
2023/01/12 07:25:24;;;;;;;6.97;1.50;;;;;;;;;;5050181;28;20055;-61
2023/01/12 07:27:51;;;;;;;3.25;1.33;;;;;;;;;;5045600;28;20482;-61
2023/01/12 07:30:19;;;;;;;3.65;1.33;;;;;;;;;;5036382;28;20040;-61
2023/01/12 07:32:44;;;;;;;4.80;1.85;;;;;;;;;;5045455;28;20041;-61
2023/01/12 07:35:10;;;;;;;7.88;1.83;;;;;;;;;;5052047;28;20078;-60
2023/01/12 07:37:35;;;;;;;2.55;1.20;;;;;;;;;;5053149;28;20047;-61
2023/01/12 07:40:00;;;;;;;4.15;1.38;;;;;;;;;;5063035;28;20021;-61
2023/01/12 07:42:26;;;;;;;4.15;1.40;;;;;;;;;;5049863;28;20037;-60
2023/01/12 07:44:51;;;;;;;7.22;1.42;;;;;;;;;;5047735;28;20056;-61
2023/01/12 07:47:17;;;;;;;4.53;1.55;;;;;;;;;;5049690;28;20033;-61
2023/01/12 07:49:42;;;;;;;4.35;1.40;;;;;;;;;;5060556;28;20044;-62
2023/01/12 07:52:10;;;;;;;5.57;1.23;;;;;;;;;;5070000;28;20035;-62
2023/01/12 07:54:36;;;;;;;3.95;1.40;;;;;;;;;;5068012;28;20064;-61
2023/01/12 07:57:02;;;;;;;7.72;1.20;;;;;;;;;;5073649;28;20103;-62
2023/01/12 07:59:27;;;;;;;5.70;1.20;;;;;;;;;;5072059;28;20118;-61
2023/01/12 08:01:55;;;;;;;4.00;1.35;;;;;;;;;;5095169;28;20067;-58
2023/01/12 08:04:21;;;;;;;4.60;1.52;;;;;;;;;;5090786;28;20039;-58
2023/01/12 08:06:47;;;;;;;2.05;1.30;;;;;;;;;;5082702;28;20036;-60
2023/01/12 08:09:12;;;;;;;5.32;1.73;;;;;;;;;;5090638;28;20047;-59
2023/01/12 08:11:38;;;;;;;2.92;1.00;;;;;;;;;;5074654;28;20028;-61
2023/01/12 08:14:04;;;;;;;6.00;1.52;;;;;;;;;;5071003;28;20028;-61
2023/01/12 08:16:36;;;;;;;6.22;1.60;;;;;;;;;;5094066;28;20028;-60
2023/01/12 08:19:11;;;;;;;4.05;1.52;;;;;;;;;;5091644;28;20042;-62
2023/01/12 08:21:47;;;;;;;3.45;1.60;;;;;;;;;;5073445;28;20039;-60
2023/01/12 08:24:20;;;;;;;3.53;1.63;;;;;;;;;;5073184;28;20465;-58
2023/01/12 08:26:49;;;;;;;5.82;1.60;;;;;;;;;;5079407;28;20515;-60
2023/01/12 08:29:18;;;;;;;4.95;1.27;;;;;;;;;;5073559;28;21025;-60
2023/01/12 08:31:44;;;;;;;6.07;1.50;;;;;;;;;;5082738;28;20032;-59
2023/01/12 08:34:09;;;;;;;8.43;1.58;;;;;;;;;;5078423;28;20074;-60
2023/01/12 08:36:36;;;;;;;5.05;1.60;;;;;;;;;;5073935;28;20032;-60
2023/01/12 08:39:03;;;;;;;3.80;1.70;;;;;;;;;;5070559;28;20028;-60
2023/01/12 08:41:32;;;;;;;5.55;1.73;;;;;;;;;;5089234;28;20027;-60
2023/01/12 08:44:03;;;;;;;8.63;1.75;;;;;;;;;;5091920;28;20036;-61
2023/01/12 08:46:33;;;;;;;4.63;1.60;;;;;;;;;;5088993;28;20082;-60
2023/01/12 08:48:59;;;;;;;9.32;1.92;;;;;;;;;;5088169;28;20503;-61
2023/01/12 08:51:24;;;;;;;7.53;1.50;;;;;;;;;;5093174;28;20024;-60
2023/01/12 08:53:50;;;;;;;5.40;1.75;;;;;;;;;;5076933;28;20037;-60
2023/01/12 08:56:15;;;;;;;5.75;2.03;;;;;;;;;;5072635;28;20036;-61
2023/01/12 08:58:41;;;;;;;5.40;1.83;;;;;;;;;;5084858;28;20384;-61
2023/01/12 09:01:12;;;;;;;6.28;1.80;;;;;;;;;;5063663;28;20032;-62
2023/01/12 09:03:38;;;;;;;4.82;1.50;;;;;;;;;;5068840;28;20113;-61
2023/01/12 09:06:26;;;;;;;4.65;2.03;;;;;;;;;;5072399;28;20095;-62
2023/01/12 09:08:59;;;;;;;3.38;1.70;;;;;;;;;;5079217;28;20034;-61
2023/01/12 09:11:27;;;;;;;4.53;1.55;;;;;;;;;;5072530;28;20020;-60
2023/01/12 09:13:52;;;;;;;3.72;1.65;;;;;;;;;;5085153;28;20472;-61
2023/01/12 09:16:18;;;;;;;4.72;1.80;;;;;;;;;;5083333;28;20037;-61
2023/01/12 09:18:44;;;;;;;5.63;1.90;;;;;;;;;;5073077;28;20032;-59
2023/01/12 09:21:12;;;;;;;7.38;1.77;;;;;;;;;;5075402;28;20042;-60
2023/01/12 09:23:38;;;;;;;4.45;1.98;;;;;;;;;;5068988;28;20060;-62
2023/01/12 09:26:06;;;;;;;7.85;1.92;;;;;;;;;;5068923;28;20043;-62
2023/01/12 09:28:32;;;;;;;1.92;1.30;;;;;;;;;;5072331;28;20039;-62
2023/01/12 09:31:09;;;;;;;3.38;1.50;;;;;;;;;;5067613;28;20076;-59
2023/01/12 09:33:36;;;;;;;4.47;1.70;;;;;;;;;;5063826;28;20025;-61
2023/01/12 09:36:07;;;;;;;3.60;1.73;;;;;;;;;;5068138;28;20032;-60
2023/01/12 09:38:37;;;;;;;2.72;1.48;;;;;;;;;;5072614;28;20024;-61
2023/01/12 09:47:34;;;;;;;4.40;1.80;;;;;;;;;;5071495;28;20024;-61
2023/01/12 09:50:09;;;;;;;;;;;;;;;;;;5072961;28;20034;-61
2023/01/12 09:53:13;;;;;;;1.90;1.30;;;;;;;;;;5069783;28;20384;-58
2023/01/12 09:55:52;;;;;;;3.67;1.55;;;;;;;;;;5056349;28;20040;-60
2023/01/12 09:58:44;;;;;;;4.25;1.65;;;;;;;;;;5066775;28;20028;-60
2023/01/12 10:01:14;;;;;;;3.17;1.50;;;;;;;;;;5052318;28;20041;-61
2023/01/12 10:03:41;;;;;;;5.90;1.53;;;;;;;;;;5071219;28;20401;-61
2023/01/12 10:06:13;;;;;;;2.58;1.45;;;;;;;;;;5070192;28;20032;-62
2023/01/12 10:08:44;;;;;;;6.60;1.60;;;;;;;;;;5071182;28;20044;-61
2023/01/12 10:11:28;;;;;;;2.50;1.40;;;;;;;;;;5074315;28;20045;-62
2023/01/12 10:14:31;;;;;;;5.78;1.50;;;;;;;;;;5071085;28;20086;-62
2023/01/12 10:17:22;;;;;;;3.28;1.60;;;;;;;;;;5061777;28;20090;-62
2023/01/12 10:19:57;;;;;;;3.28;1.80;;;;;;;;;;5074580;28;20024;-62
2023/01/12 10:22:37;;;;;;;3.45;1.58;;;;;;;;;;5091492;28;20288;-62
2023/01/12 10:25:20;;;;;;;3.33;1.85;;;;;;;;;;5075671;28;20048;-62
2023/01/12 10:27:47;;;;;;;3.10;1.60;;;;;;;;;;5071949;28;20032;-62
2023/01/12 10:30:17;;;;;;;3.03;1.67;;;;;;;;;;5069538;28;20055;-62
2023/01/12 10:32:43;;;;;;;3.40;1.85;;;;;;;;;;5058218;28;20028;-63
2023/01/12 10:35:14;;;;;;;3.88;1.60;;;;;;;;;;5080183;28;20024;-62
2023/01/12 10:37:49;;;;;;;3.80;1.73;;;;;;;;;;5069051;28;20142;-62
2023/01/12 10:40:33;;;;;;;4.72;1.38;;;;;;;;;;5071127;28;20047;-63
2023/01/12 10:43:18;;;;;;;5.28;1.48;;;;;;;;;;5070171;28;20067;-63
2023/01/12 10:45:46;;;;;;;3.78;1.52;;;;;;;;;;5070588;28;20062;-61
2023/01/12 10:48:19;;;;;;;3.10;1.40;;;;;;;;;;5070706;28;20039;-59
2023/01/12 10:50:56;;;;;;;3.00;1.58;;;;;;;;;;5063805;28;20058;-62
2023/01/12 10:53:26;;;;;;;3.17;1.77;;;;;;;;;;5069660;28;20040;-61
2023/01/12 10:55:53;;;;;;;4.50;1.95;;;;;;;;;;5069425;28;20402;-61
2023/01/12 10:58:24;;;;;;;3.50;1.63;;;;;;;;;;5070343;28;20028;-60
2023/01/12 11:00:51;;;;;;;2.60;1.63;;;;;;;;;;5069487;28;20044;-59
2023/01/12 11:03:38;;;;;;;10.10;2.00;;;;;;;;;;5070535;28;20143;-61
2023/01/12 11:06:25;;;;;;;3.47;1.50;;;;;;;;;;5071074;28;20033;-63
2023/01/12 11:08:50;;;;;;;3.53;1.90;;;;;;;;;;5068221;28;20041;-61
2023/01/12 11:11:32;;;;;;;3.03;1.58;;;;;;;;;;5069160;28;20097;-61
2023/01/12 11:14:00;;;;;;;1.75;1.40;;;;;;;;;;5071313;28;20032;-61
2023/01/12 11:16:33;;;;;;;3.20;1.65;;;;;;;;;;5070180;28;20024;-61
2023/01/12 11:19:04;;;;;;;5.35;1.60;;;;;;;;;;5070000;28;20021;-61
2023/01/12 11:21:35;;;;;;;3.38;1.80;;;;;;;;;;5068801;28;20063;-60
2023/01/12 11:24:08;;;;;;;;;;;;;;;;;;5069228;28;20028;-59
2023/01/12 11:26:51;;;;;;;5.57;2.30;;;;;;;;;;5068571;28;19913;-60
2023/01/12 11:29:39;;;;;;;3.90;1.77;;;;;;;;;;5062468;28;20036;-58
2023/01/12 11:32:37;;;;;;;3.00;1.77;;;;;;;;;;5072738;28;20052;-60
2023/01/12 11:35:23;;;;;;;4.57;2.20;;;;;;;;;;5057298;28;20032;-61
2023/01/12 11:37:52;;;;;;;3.97;1.95;;;;;;;;;;5074982;28;20032;-59
2023/01/12 11:40:28;;;;;;;3.60;2.20;;;;;;;;;;5073859;28;20028;-60
2023/01/12 11:45:52;;;;;;;6.25;2.28;;;;;;;;;;5064249;28;20084;-59
2023/01/12 11:48:42;;;;;;;5.88;2.22;;;;;;;;;;5073967;28;20025;-60
2023/01/12 11:51:10;;;;;;;3.92;1.98;;;;;;;;;;5058971;28;20057;-60
2023/01/12 11:53:35;;;;;;;4.72;2.20;;;;;;;;;;5054603;28;20394;-58
2023/01/12 11:56:19;;;;;;;5.30;2.38;;;;;;;;;;5065059;28;20119;-61
2023/01/12 11:58:53;;;;;;;4.20;2.20;;;;;;;;;;5064584;28;20039;-61
2023/01/12 12:01:35;;;;;;;7.75;2.63;;;;;;;;;;5073851;28;20020;-59
2023/01/12 12:04:07;;;;;;;5.57;2.63;;;;;;;;;;5075525;28;20029;-60
2023/01/12 12:06:47;;;;;;;5.90;2.10;;;;;;;;;;5074350;28;20056;-60
2023/01/12 12:09:31;;;;;;;4.25;1.92;;;;;;;;;;5087240;28;20036;-61
2023/01/12 12:12:00;;;;;;;4.00;1.67;;;;;;;;;;5066276;28;20036;-61
2023/01/12 12:14:53;;;;;;;5.47;2.45;;;;;;;;;;5053510;28;20087;-61
2023/01/12 12:17:25;;;;;;;3.67;2.15;;;;;;;;;;5064420;28;20517;-60
2023/01/12 12:20:07;;;;;;;4.80;2.78;;;;;;;;;;5073609;28;20055;-60
2023/01/12 12:22:33;;;;;;;4.22;2.35;;;;;;;;;;5072789;28;20032;-61
2023/01/12 12:25:17;;;;;;;3.47;1.80;;;;;;;;;;5074291;28;20040;-61
2023/01/12 12:27:45;;;;;;;4.50;2.45;;;;;;;;;;5074878;28;20032;-61
2023/01/12 12:30:42;;;;;;;3.67;2.42;;;;;;;;;;5073946;28;20028;-61
2023/01/12 12:33:31;;;;;;;6.00;2.42;;;;;;;;;;5072746;28;20032;-61
2023/01/12 12:36:05;;;;;;;6.03;2.45;;;;;;;;;;5079713;28;20039;-61
2023/01/12 12:38:46;;;;;;;3.53;2.00;;;;;;;;;;5083683;28;20040;-60
2023/01/12 12:45:16;;;;;;;4.45;2.50;;;;;;;;;;5074918;28;20161;-61
2023/01/12 12:48:02;;;;;;;7.65;3.53;;;;;;;;;;5064455;28;20078;-60
2023/01/12 12:50:41;;;;;;;6.43;2.60;;;;;;;;;;5056014;28;20029;-61
2023/01/12 12:53:15;;;;;;;4.75;3.00;;;;;;;;;;5066673;28;20426;-61
2023/01/12 12:55:41;;;;;;;7.50;2.60;;;;;;;;;;5056535;28;20043;-60
2023/01/12 12:58:21;;;;;;;5.57;2.65;;;;;;;;;;5069811;28;20146;-62
2023/01/12 13:00:48;;;;;;;4.03;2.15;;;;;;;;;;5045719;28;20052;-60
2023/01/12 13:03:38;;;;;;;4.85;2.55;;;;;;;;;;5041714;28;20116;-59
2023/01/12 13:06:19;;;;;;;5.05;2.50;;;;;;;;;;5051565;28;20040;-61
2023/01/12 13:08:47;;;;;;;7.05;2.80;;;;;;;;;;5052207;28;20455;-61
2023/01/12 13:11:13;;;;;;;4.43;2.90;;;;;;;;;;5048966;28;20382;-55
2023/01/12 13:13:59;;;;;;;4.97;2.72;;;;;;;;;;5048620;28;20033;-62
2023/01/12 13:16:24;;;;;;;5.57;2.72;;;;;;;;;;5051438;28;20188;-60
2023/01/12 13:18:50;;;;;;;4.78;2.97;;;;;;;;;;5052865;28;20445;-58
2023/01/12 13:21:49;;;;;;;6.60;2.83;;;;;;;;;;5050990;28;20509;-58
2023/01/12 13:24:23;;;;;;;5.20;2.15;;;;;;;;;;5051185;28;20056;-60
2023/01/12 13:26:51;;;;;;;5.20;2.58;;;;;;;;;;5065027;28;20093;-59
2023/01/12 13:29:23;;;;;;;3.25;1.90;;;;;;;;;;5045286;28;20394;-58
2023/01/12 13:31:49;;;;;;;6.22;2.20;;;;;;;;;;5047662;28;20029;-59
2023/01/12 13:34:47;;;;;;;5.32;1.83;;;;;;;;;;5047849;28;20436;-60
2023/01/12 13:37:34;;;;;;;4.82;2.40;;;;;;;;;;5051611;28;20037;-59
2023/01/12 13:40:18;;;;;;;4.50;1.65;;;;;;;;;;5032725;28;20045;-60
2023/01/12 13:45:31;;;;;;;5.15;2.13;;;;;;;;;;5046828;28;20072;-61
2023/01/12 13:47:57;;;;;;;3.60;2.08;;;;;;;;;;5054398;28;20470;-61
2023/01/12 13:50:26;;;;;;;2.25;1.50;;;;;;;;;;5069329;28;20040;-61
2023/01/12 13:53:03;;;;;;;4.78;1.60;;;;;;;;;;5069657;28;20033;-60
2023/01/12 13:55:31;;;;;;;2.72;1.65;;;;;;;;;;5049146;28;20029;-60
2023/01/12 13:58:05;;;;;;;5.63;1.65;;;;;;;;;;5041301;28;20040;-61
2023/01/12 14:00:32;;;;;;;5.13;2.08;;;;;;;;;;5072128;28;20053;-60
2023/01/12 14:02:58;;;;;;;3.45;1.65;;;;;;;;;;5060684;28;20046;-61
2023/01/12 14:05:42;;;;;;;2.65;1.55;;;;;;;;;;5071443;28;20056;-60
2023/01/12 14:08:23;;;;;;;3.38;1.58;;;;;;;;;;5064736;28;20082;-60
2023/01/12 14:10:57;;;;;;;2.85;1.58;;;;;;;;;;5072186;28;20067;-57
2023/01/12 14:13:41;;;;;;;4.30;1.80;;;;;;;;;;5063697;28;20477;-61
2023/01/12 14:18:59;;;;;;;3.55;1.95;;;;;;;;;;5073836;28;20557;-57
2023/01/12 14:21:31;;;;;;;3.90;2.08;;;;;;;;;;5068965;28;20127;-60
2023/01/12 14:24:17;;;;;;;3.25;1.75;;;;;;;;;;5071863;28;20468;-60
2023/01/12 14:26:43;;;;;;;7.57;3.20;;;;;;;;;;5071390;28;20029;-60
2023/01/12 14:29:10;;;;;;;7.00;2.97;;;;;;;;;;5070730;28;20040;-61
2023/01/12 14:31:40;;;;;;;6.10;2.97;;;;;;;;;;5068768;28;20044;-59
2023/01/12 14:34:17;;;;;;;4.00;2.42;;;;;;;;;;5070789;28;20035;-61
2023/01/12 14:36:44;;;;;;;4.07;2.17;;;;;;;;;;5071591;28;20033;-59
2023/01/12 14:39:18;;;;;;;10.05;4.40;;;;;;;;;;5070847;28;20063;-61
2023/01/12 14:47:28;;;;;;;5.38;2.80;;;;;;;;;;5068668;28;20047;-59
2023/01/12 14:49:54;;;;;;;7.82;2.40;;;;;;;;;;5070831;28;20100;-63
2023/01/12 14:52:24;;;;;;;3.88;2.00;;;;;;;;;;5072629;28;20764;-60
2023/01/12 14:54:51;;;;;;;7.70;3.15;;;;;;;;;;5069977;28;20028;-60
2023/01/12 14:57:34;;;;;;;2.85;1.75;;;;;;;;;;5068366;28;20604;-60
2023/01/12 15:00:01;;;;;;;4.18;2.15;;;;;;;;;;5064826;28;20067;-60
2023/01/12 15:02:37;;;;;;;4.97;2.60;;;;;;;;;;5061772;28;20119;-60
2023/01/12 15:05:18;;;;;;;3.95;2.35;;;;;;;;;;5077682;28;20036;-59
2023/01/12 15:07:55;;;;;;;3.22;1.80;;;;;;;;;;5082409;28;20476;-60
2023/01/12 15:10:30;;;;;;;2.70;1.92;;;;;;;;;;5071215;28;20036;-56
2023/01/12 15:12:57;;;;;;;5.97;2.42;;;;;;;;;;5074323;28;20028;-60
2023/01/12 15:25:34;;;;;;;2.22;1.70;;;;;;;;;;5080829;28;20594;-58
2023/01/12 15:26:24;;;;;;;2.10;1.42;;;;;;;;;;5078189;28;20043;-58
2023/01/12 15:28:49;;;;;;;3.83;1.90;;;;;;;;;;5082381;28;20041;-60
2023/01/12 15:31:22;;;;;;;1.42;1.33;;;;;;;;;;5066180;28;20497;-60
2023/01/12 15:33:48;;;;;;;3.05;1.85;;;;;;;;;;5081793;28;20039;-60
2023/01/12 15:36:13;;;;;;;2.35;1.67;;;;;;;;;;5090045;28;20032;-60
2023/01/12 15:38:39;;;;;;;2.63;1.83;;;;;;;;;;5068898;28;20086;-60
2023/01/12 15:41:05;;;;;;;3.08;1.42;;;;;;;;;;5085179;28;20097;-59
2023/01/12 15:43:30;;;;;;;1.52;1.25;;;;;;;;;;5078812;28;20107;-60
2023/01/12 15:45:56;;;;;;;3.45;1.27;;;;;;;;;;5058304;28;20119;-60
2023/01/12 15:48:21;;;;;;;2.40;1.40;;;;;;;;;;5066946;28;20051;-61
2023/01/12 15:50:47;;;;;;;4.05;1.80;;;;;;;;;;5077879;28;20532;-60
2023/01/12 15:53:20;;;;;;;1.50;1.20;;;;;;;;;;5090318;28;20028;-60
2023/01/12 15:55:47;;;;;;;2.97;1.20;;;;;;;;;;5080092;28;20056;-61
2023/01/12 15:58:13;;;;;;;2.47;1.25;;;;;;;;;;5069998;28;20032;-61
2023/01/12 16:00:39;;;;;;;2.70;1.60;;;;;;;;;;5081512;28;20430;-61
2023/01/12 16:03:05;;;;;;;1.95;1.33;;;;;;;;;;5069829;28;20032;-63
2023/01/12 16:05:30;;;;;;;4.28;1.58;;;;;;;;;;5068232;28;20032;-63
2023/01/12 16:07:56;;;;;;;1.92;1.40;;;;;;;;;;5070420;28;20037;-58